createdAt,value
2022-08-09T00:00:00.295Z,20.20
2022-08-09T00:04:06.320Z,20.16
2022-08-09T00:08:04.183Z,20.14
2022-08-09T00:12:04.710Z,19.89
2022-08-09T00:16:02.286Z,20.07
2022-08-09T00:19:55.500Z,20.09
2022-08-09T00:23:56.010Z,19.94
2022-08-09T00:27:52.228Z,20.05
2022-08-09T00:31:59.168Z,20.17
2022-08-09T00:35:53.482Z,20.07
2022-08-09T00:40:12.431Z,20.14
2022-08-09T00:44:12.957Z,20.13
2022-08-09T00:48:15.441Z,20.16
2022-08-09T00:52:17.752Z,20.26
2022-08-09T00:56:10.504Z,20.21
2022-08-09T01:00:20.544Z,20.14
2022-08-09T01:04:38.324Z,20.20
2022-08-09T01:09:17.468Z,20.13
2022-08-09T01:13:53.448Z,20.16
2022-08-09T01:18:04.905Z,20.07
2022-08-09T01:22:43.271Z,19.89
2022-08-09T01:26:57.461Z,19.86
2022-08-09T01:30:54.849Z,19.92
2022-08-09T01:34:54.762Z,19.72
2022-08-09T01:38:49.369Z,19.71
2022-08-09T01:42:42.795Z,19.44
2022-08-09T01:46:41.910Z,19.72
2022-08-09T01:50:41.868Z,19.38
2022-08-09T01:54:41.320Z,19.31
2022-08-09T01:58:35.091Z,19.44
2022-08-09T02:02:31.760Z,19.42
2022-08-09T02:06:45.482Z,19.32
2022-08-09T02:10:51.825Z,19.25
2022-08-09T02:14:45.777Z,19.02
2022-08-09T02:18:42.769Z,18.97
2022-08-09T02:22:45.636Z,18.96
2022-08-09T02:26:40.378Z,18.72
2022-08-09T02:30:42.411Z,18.85
2022-08-09T02:34:40.469Z,18.90
2022-08-09T02:38:38.537Z,19.23
2022-08-09T02:42:38.982Z,19.28
2022-08-09T02:46:34.204Z,19.28
2022-08-09T02:50:45.267Z,19.36
2022-08-09T02:54:54.183Z,19.23
2022-08-09T02:58:49.444Z,19.23
2022-08-09T03:03:00.169Z,19.11
2022-08-09T03:06:54.258Z,18.83
2022-08-09T03:10:50.905Z,18.75
2022-08-09T03:14:45.718Z,18.70
2022-08-09T03:18:42.161Z,18.97
2022-08-09T03:22:41.735Z,18.77
2022-08-09T03:26:44.936Z,18.76
2022-08-09T03:30:38.543Z,18.76
2022-08-09T03:34:31.236Z,18.69
2022-08-09T03:38:28.836Z,18.83
2022-08-09T03:42:28.859Z,18.75
2022-08-09T03:46:29.266Z,18.79
2022-08-09T03:50:27.879Z,18.70
2022-08-09T03:54:29.527Z,18.70
2022-08-09T03:58:23.186Z,18.65
2022-08-09T04:02:19.803Z,18.80
2022-08-09T04:06:20.469Z,18.85
2022-08-09T04:10:13.406Z,18.83
2022-08-09T04:14:53.734Z,18.92
2022-08-09T04:18:21.540Z,18.82
2022-08-09T04:22:14.455Z,18.95
2022-08-09T04:26:09.762Z,19.20
2022-08-09T04:30:02.511Z,19.76
2022-08-09T04:33:59.311Z,20.23
2022-08-09T04:37:52.076Z,20.78
2022-08-09T04:41:46.170Z,21.23
2022-08-09T04:45:53.105Z,21.65
2022-08-09T04:49:54.658Z,21.61
2022-08-09T04:53:51.238Z,22.30
2022-08-09T04:57:54.139Z,22.50
2022-08-09T05:01:54.768Z,22.61
2022-08-09T05:05:52.048Z,22.84
2022-08-09T05:09:49.861Z,22.61
2022-08-09T05:13:43.090Z,21.69
2022-08-09T05:18:38.942Z,21.57
2022-08-09T05:21:55.639Z,20.95
2022-08-09T05:25:50.833Z,20.56
2022-08-09T05:29:43.958Z,20.58
2022-08-09T05:33:42.549Z,20.55
2022-08-09T05:37:44.741Z,20.83
2022-08-09T05:41:41.337Z,21.16
2022-08-09T05:45:53.035Z,21.20
2022-08-09T05:50:32.361Z,21.58
2022-08-09T05:53:59.429Z,22.64
2022-08-09T05:57:57.134Z,23.32
2022-08-09T06:01:50.598Z,24.60
2022-08-09T06:06:04.489Z,24.42
2022-08-09T06:10:02.812Z,24.35
2022-08-09T06:13:56.530Z,23.04
2022-08-09T06:17:48.889Z,22.16
2022-08-09T06:21:51.410Z,22.74
2022-08-09T06:25:55.145Z,22.96
2022-08-09T06:30:04.255Z,22.12
2022-08-09T06:34:00.742Z,22.35
2022-08-09T06:38:05.981Z,22.50
2022-08-09T06:42:09.303Z,22.56
2022-08-09T06:46:06.311Z,22.95
2022-08-09T06:50:13.861Z,24.25
2022-08-09T06:54:14.858Z,25.37
2022-08-09T06:58:07.946Z,25.79
2022-08-09T07:02:20.951Z,25.65
2022-08-09T07:06:13.988Z,24.93
2022-08-09T07:10:22.396Z,26.58
2022-08-09T07:14:26.554Z,26.21
2022-08-09T07:18:19.661Z,24.88
2022-08-09T07:22:12.270Z,25.70
2022-08-09T07:26:07.005Z,27.14
2022-08-09T07:30:01.750Z,26.60
2022-08-09T07:33:55.842Z,26.89
2022-08-09T07:37:49.311Z,25.96
2022-08-09T07:41:42.022Z,27.02
2022-08-09T07:45:40.545Z,26.60
2022-08-09T07:50:05.299Z,26.45
2022-08-09T07:54:07.321Z,25.72
2022-08-09T07:58:01.128Z,25.35
2022-08-09T08:01:56.127Z,25.27
2022-08-09T08:05:54.077Z,26.13
2022-08-09T08:09:53.642Z,25.97
2022-08-09T08:13:56.350Z,25.22
2022-08-09T08:17:58.004Z,25.79
2022-08-09T08:21:53.116Z,26.00
2022-08-09T08:25:49.903Z,26.01
2022-08-09T08:29:48.474Z,25.93
2022-08-09T08:33:52.468Z,26.18
2022-08-09T08:38:02.202Z,26.39
2022-08-09T08:42:00.130Z,26.42
2022-08-09T08:46:10.118Z,26.24
2022-08-09T08:50:18.286Z,26.78
2022-08-09T08:54:20.298Z,26.39
2022-08-09T08:58:27.116Z,27.17
2022-08-09T09:02:31.116Z,27.15
2022-08-09T09:06:24.922Z,27.13
2022-08-09T09:10:18.264Z,27.34
2022-08-09T09:14:18.158Z,27.54
2022-08-09T09:18:17.573Z,27.51
2022-08-09T09:22:26.935Z,27.63
2022-08-09T09:26:26.171Z,27.35
2022-08-09T09:30:38.200Z,27.77
2022-08-09T09:34:32.255Z,27.41
2022-08-09T09:38:42.738Z,27.21
2022-08-09T09:42:36.447Z,27.40
2022-08-09T09:46:41.920Z,27.45
2022-08-09T09:50:49.792Z,27.65
2022-08-09T09:54:48.598Z,27.79
2022-08-09T09:58:49.222Z,27.61
2022-08-09T10:02:46.859Z,27.65
2022-08-09T10:06:43.054Z,27.57
2022-08-09T10:10:36.216Z,27.69
2022-08-09T10:14:33.440Z,26.83
2022-08-09T10:18:26.253Z,27.31
2022-08-09T10:22:31.140Z,27.62
2022-08-09T10:26:26.813Z,28.03
2022-08-09T10:34:36.042Z,28.06
2022-08-09T10:38:54.443Z,28.14
2022-08-09T10:42:41.327Z,28.51
2022-08-09T10:48:12.524Z,28.50
2022-08-09T10:51:41.203Z,28.33
2022-08-09T10:55:35.827Z,28.50
2022-08-09T10:59:57.950Z,28.50
2022-08-09T11:04:30.892Z,28.23
2022-08-09T11:08:47.548Z,28.58
2022-08-09T11:12:40.726Z,28.74
2022-08-09T11:16:39.312Z,28.45
2022-08-09T11:20:45.527Z,28.36
2022-08-09T11:25:10.462Z,28.24
2022-08-09T11:29:04.620Z,28.58
2022-08-09T11:33:10.503Z,28.39
2022-08-09T11:37:07.614Z,28.72
2022-08-09T11:41:05.368Z,28.62
2022-08-09T11:44:57.968Z,28.75
2022-08-09T11:48:53.712Z,28.94
2022-08-09T11:53:15.454Z,29.19
2022-08-09T11:57:47.443Z,28.81
2022-08-09T12:02:16.860Z,28.34
2022-08-09T12:06:12.951Z,28.50
2022-08-09T12:10:08.666Z,28.34
2022-08-09T12:14:40.977Z,28.61
2022-08-09T12:18:49.009Z,28.67
2022-08-09T12:22:47.801Z,28.74
2022-08-09T12:28:58.633Z,29.06
2022-08-09T12:31:11.315Z,29.36
2022-08-09T12:35:19.352Z,29.31
2022-08-09T12:39:14.912Z,29.20
2022-08-09T12:43:07.496Z,29.05
2022-08-09T12:47:00.036Z,29.22
2022-08-09T12:50:54.822Z,29.25
2022-08-09T12:55:03.321Z,29.03
2022-08-09T12:59:11.889Z,29.27
2022-08-09T13:03:06.485Z,28.89
2022-08-09T13:07:16.941Z,29.05
2022-08-09T13:11:22.886Z,29.05
2022-08-09T13:15:17.009Z,28.96
2022-08-09T13:19:11.816Z,28.81
2022-08-09T13:24:06.617Z,28.94
2022-08-09T13:27:40.152Z,28.92
2022-08-09T13:32:16.348Z,29.05
2022-08-09T13:36:39.876Z,29.10
2022-08-09T13:41:50.896Z,29.16
2022-08-09T13:44:37.927Z,29.29
2022-08-09T13:48:34.797Z,29.09
2022-08-09T13:52:29.082Z,29.30
2022-08-09T13:56:21.707Z,29.38
2022-08-09T14:00:20.148Z,29.25
2022-08-09T14:04:13.691Z,29.34
2022-08-09T14:08:07.200Z,29.36
2022-08-09T14:12:06.123Z,29.51
2022-08-09T14:16:13.901Z,29.37
2022-08-09T14:20:07.481Z,29.47
2022-08-09T14:24:05.406Z,29.54
2022-08-09T14:28:03.163Z,29.60
2022-08-09T14:31:55.644Z,29.63
2022-08-09T14:35:52.755Z,29.81
2022-08-09T14:39:48.607Z,29.60
2022-08-09T14:43:47.403Z,29.67
2022-08-09T14:47:49.597Z,29.44
2022-08-09T14:51:51.780Z,29.33
2022-08-09T14:55:51.154Z,29.57
2022-08-09T14:59:48.097Z,29.77
2022-08-09T15:03:42.191Z,29.60
2022-08-09T15:07:36.186Z,29.44
2022-08-09T15:11:29.113Z,29.38
2022-08-09T15:15:23.565Z,29.22
2022-08-09T15:19:18.277Z,28.71
2022-08-09T15:24:00.919Z,28.76
2022-08-09T15:27:25.084Z,28.48
2022-08-09T15:31:20.269Z,28.62
2022-08-09T15:35:18.301Z,28.82
2022-08-09T15:39:25.475Z,28.88
2022-08-09T15:43:36.756Z,29.10
2022-08-09T15:47:43.589Z,28.92
2022-08-09T15:52:02.785Z,28.82
2022-08-09T15:56:21.735Z,28.98
2022-08-09T16:00:24.214Z,28.92
2022-08-09T16:04:16.868Z,28.95
2022-08-09T16:08:29.662Z,28.68
2022-08-09T16:12:23.612Z,28.54
2022-08-09T16:16:19.295Z,28.62
2022-08-09T16:20:13.142Z,28.57
2022-08-09T16:24:08.810Z,28.36
2022-08-09T16:28:13.718Z,28.16
2022-08-09T16:32:18.618Z,28.09
2022-08-09T16:36:19.757Z,28.18
2022-08-09T16:40:29.463Z,28.07
2022-08-09T16:44:28.761Z,27.97
2022-08-09T16:48:41.894Z,27.77
2022-08-09T16:52:36.336Z,27.90
2022-08-09T16:56:30.697Z,27.92
2022-08-09T17:00:23.415Z,27.95
2022-08-09T17:04:25.583Z,27.85
2022-08-09T17:08:47.004Z,27.73
2022-08-09T17:12:33.460Z,27.86
2022-08-09T17:16:26.212Z,27.72
2022-08-09T17:20:29.869Z,27.75
2022-08-09T17:24:30.986Z,27.59
2022-08-09T17:28:26.763Z,27.62
2022-08-09T17:32:34.677Z,27.59
2022-08-09T17:36:27.884Z,27.44
2022-08-09T17:40:20.572Z,27.35
2022-08-09T17:44:38.230Z,27.47
2022-08-09T17:48:31.379Z,27.37
2022-08-09T17:52:24.254Z,27.26
2022-08-09T17:56:18.195Z,27.29
2022-08-09T18:00:12.439Z,26.92
2022-08-09T18:04:05.300Z,26.99
2022-08-09T18:07:58.088Z,26.80
2022-08-09T18:12:15.317Z,26.95
2022-08-09T18:16:08.693Z,26.86
2022-08-09T18:21:01.200Z,26.69
2022-08-09T18:24:15.250Z,26.35
2022-08-09T18:28:20.974Z,25.89
2022-08-09T18:32:20.903Z,25.97
2022-08-09T18:36:14.214Z,26.00
2022-08-09T18:40:18.505Z,25.83
2022-08-09T18:44:19.818Z,25.31
2022-08-09T18:48:17.693Z,25.11
2022-08-09T18:52:12.298Z,24.73
2022-08-09T18:56:05.912Z,24.49
2022-08-09T19:00:03.698Z,24.32
2022-08-09T19:04:06.391Z,24.15
2022-08-09T19:08:09.887Z,24.05
2022-08-09T19:12:04.372Z,23.93
2022-08-09T19:15:57.292Z,24.00
2022-08-09T19:19:51.567Z,23.93
2022-08-09T19:24:36.358Z,23.93
2022-08-09T19:28:05.805Z,23.88
2022-08-09T19:32:00.021Z,23.80
2022-08-09T19:35:57.835Z,23.85
2022-08-09T19:40:04.317Z,23.91
2022-08-09T19:44:02.538Z,23.88
2022-08-09T19:47:55.612Z,23.82
2022-08-09T19:51:55.685Z,23.85
2022-08-09T19:56:01.851Z,23.81
2022-08-09T20:00:02.438Z,23.80
2022-08-09T20:04:17.881Z,23.85
2022-08-09T20:08:12.489Z,23.80
2022-08-09T20:12:09.741Z,23.85
2022-08-09T20:16:38.055Z,23.74
2022-08-09T20:20:32.563Z,23.63
2022-08-09T20:24:29.705Z,23.54
2022-08-09T20:28:31.987Z,23.57
2022-08-09T20:32:33.306Z,23.56
2022-08-09T20:36:38.218Z,23.49
2022-08-09T20:40:31.008Z,23.45
2022-08-09T20:44:26.993Z,23.52
2022-08-09T20:48:22.879Z,23.49
2022-08-09T20:52:15.305Z,23.53
2022-08-09T20:56:21.271Z,23.45
2022-08-09T21:00:20.088Z,23.33
2022-08-09T21:05:52.139Z,23.39
2022-08-09T21:08:36.576Z,23.33
2022-08-09T21:16:43.696Z,23.20
2022-08-09T21:20:38.467Z,23.26
2022-08-09T21:24:33.867Z,23.22
2022-08-09T21:28:35.133Z,23.12
2022-08-09T21:32:33.587Z,23.01
2022-08-09T21:36:30.622Z,22.99
2022-08-09T21:40:30.761Z,22.98
2022-08-09T21:44:32.904Z,22.99
2022-08-09T21:48:27.863Z,22.92
2022-08-09T21:52:21.552Z,22.90
2022-08-09T21:56:34.108Z,22.92
2022-08-09T22:00:33.062Z,22.81
2022-08-09T22:04:56.940Z,22.83
2022-08-09T22:08:38.581Z,22.84
2022-08-09T22:12:38.751Z,22.75
2022-08-09T22:16:36.814Z,22.72
2022-08-09T22:20:31.476Z,22.71
2022-08-09T22:24:25.000Z,22.63
2022-08-09T22:28:29.414Z,22.60
2022-08-09T22:32:29.957Z,22.57
2022-08-09T22:36:24.066Z,22.49
2022-08-09T22:40:19.989Z,22.47
2022-08-09T22:44:13.082Z,22.50
2022-08-09T22:48:29.958Z,22.33
2022-08-09T22:52:18.534Z,22.33
2022-08-09T22:56:33.258Z,22.32
2022-08-09T23:00:25.298Z,22.33
2022-08-09T23:04:21.845Z,22.33
2022-08-09T23:08:36.998Z,22.39
2022-08-09T23:12:29.408Z,22.30
2022-08-09T23:16:22.959Z,22.35
2022-08-09T23:20:15.521Z,22.29
2022-08-09T23:24:08.554Z,22.39
2022-08-09T23:28:15.387Z,22.37
2022-08-09T23:32:08.728Z,22.36
2022-08-09T23:36:04.507Z,22.28
2022-08-09T23:39:59.105Z,22.17
2022-08-09T23:43:55.063Z,22.16
2022-08-09T23:47:47.777Z,22.22
2022-08-09T23:51:40.261Z,22.22
2022-08-09T23:55:33.310Z,22.08
2022-08-09T23:59:48.899Z,22.14
